Time;durP1;ratioP1;P1;durP2;ratioP2;P2;SDS_P1;SDS_P2;PMS_P1;PMS_P2;Temp;Humidity;BMP_temperature;BMP_pressure;BME280_temperature;BME280_humidity;BME280_pressure;Samples;Min_cycle;Max_cycle;Signal;HPM_P1;HPM_P2
2022/01/21 00:00:20;;;;;;;29.17;4.75;;;;;;;;;;5045628;28;20037;-80
2022/01/21 00:02:46;;;;;;;30.77;5.00;;;;;;;;;;5045895;28;20063;-80
2022/01/21 00:05:12;;;;;;;24.83;4.95;;;;;;;;;;5051763;28;20033;-80
2022/01/21 00:07:38;;;;;;;23.00;4.60;;;;;;;;;;5046730;28;20036;-80
2022/01/21 00:10:05;;;;;;;26.58;5.03;;;;;;;;;;5049065;28;20044;-80
2022/01/21 00:12:32;;;;;;;26.70;5.32;;;;;;;;;;5065089;28;20055;-79
2022/01/21 00:14:58;;;;;;;22.63;5.20;;;;;;;;;;5049719;28;20045;-79
2022/01/21 00:17:24;;;;;;;24.95;4.80;;;;;;;;;;5067113;28;20063;-77
2022/01/21 00:30:06;;;;;;;23.42;5.60;;;;;;;;;;5055980;28;20041;-81
2022/01/21 00:30:53;;;;;;;29.05;5.45;;;;;;;;;;5065645;28;20041;-80
2022/01/21 00:33:20;;;;;;;24.05;4.63;;;;;;;;;;5047415;28;20128;-81
2022/01/21 00:35:46;;;;;;;31.02;4.53;;;;;;;;;;5064407;28;20144;-81
2022/01/21 00:38:13;;;;;;;26.75;5.60;;;;;;;;;;5048369;28;20068;-79
2022/01/21 00:40:40;;;;;;;26.73;4.10;;;;;;;;;;5048006;28;20037;-78
2022/01/21 00:45:32;;;;;;;24.50;5.40;;;;;;;;;;5064716;28;20037;-81
2022/01/21 00:47:58;;;;;;;22.08;5.60;;;;;;;;;;5064371;28;20083;-79
2022/01/21 00:50:24;;;;;;;33.20;5.38;;;;;;;;;;5048225;28;20045;-80
2022/01/21 00:52:50;;;;;;;29.17;5.28;;;;;;;;;;5065624;28;20057;-82
2022/01/21 00:55:16;;;;;;;24.65;5.70;;;;;;;;;;5062831;28;20045;-84
2022/01/21 00:57:42;;;;;;;25.92;6.13;;;;;;;;;;5063609;28;20067;-79
2022/01/21 01:00:09;;;;;;;25.17;5.85;;;;;;;;;;5048768;28;20088;-81
2022/01/21 01:02:35;;;;;;;30.58;6.10;;;;;;;;;;5049108;28;20045;-84
2022/01/21 01:05:02;;;;;;;25.00;5.97;;;;;;;;;;5065316;28;20041;-81
2022/01/21 01:07:28;;;;;;;21.33;5.75;;;;;;;;;;5047746;28;20044;-81
2022/01/21 01:09:56;;;;;;;31.27;6.07;;;;;;;;;;5069653;28;20076;-81
2022/01/21 01:20:23;;;;;;;24.02;6.20;;;;;;;;;;5067017;28;20041;-80
2022/01/21 01:23:02;;;;;;;29.05;6.50;;;;;;;;;;5064898;28;20075;-81
2022/01/21 01:28:32;;;;;;;28.58;6.03;;;;;;;;;;4985391;28;20463;-82
2022/01/21 01:30:58;;;;;;;35.35;6.85;;;;;;;;;;5033415;28;20029;-83
2022/01/21 01:33:33;;;;;;;31.70;6.95;;;;;;;;;;5062562;28;20044;-84
2022/01/21 01:35:59;;;;;;;29.25;7.22;;;;;;;;;;5063283;28;20041;-80
2022/01/21 01:41:11;;;;;;;22.38;6.85;;;;;;;;;;5064128;28;20055;-80
2022/01/21 01:51:50;;;;;;;28.75;7.70;;;;;;;;;;5064326;28;20091;-81
2022/01/21 01:54:16;;;;;;;32.17;7.82;;;;;;;;;;5047875;28;20037;-81
2022/01/21 01:56:44;;;;;;;24.85;6.97;;;;;;;;;;5065325;28;20036;-81
2022/01/21 01:59:10;;;;;;;32.30;7.32;;;;;;;;;;5050916;28;20044;-82
2022/01/21 02:01:36;;;;;;;26.95;6.65;;;;;;;;;;5054168;28;20049;-84
2022/01/21 02:04:02;;;;;;;29.55;7.25;;;;;;;;;;5051200;28;20445;-82
2022/01/21 02:06:28;;;;;;;35.25;7.18;;;;;;;;;;5067109;28;20037;-83
2022/01/21 02:08:54;;;;;;;34.10;6.88;;;;;;;;;;5045884;28;20041;-83
2022/01/21 02:11:20;;;;;;;33.40;7.47;;;;;;;;;;5061593;28;20047;-82
2022/01/21 02:13:51;;;;;;;28.75;7.03;;;;;;;;;;5062030;28;20029;-84
2022/01/21 02:21:36;;;;;;;34.17;7.97;;;;;;;;;;5064019;28;19920;-83
2022/01/21 02:24:11;;;;;;;32.42;6.80;;;;;;;;;;5047131;28;20063;-84
2022/01/21 02:26:38;;;;;;;30.00;7.25;;;;;;;;;;5047153;28;20064;-83
2022/01/21 02:29:05;;;;;;;35.58;7.70;;;;;;;;;;5063276;28;20461;-83
2022/01/21 02:31:31;;;;;;;24.85;8.20;;;;;;;;;;5047775;28;20055;-83
2022/01/21 02:33:57;;;;;;;32.17;7.78;;;;;;;;;;5048617;28;20029;-82
2022/01/21 02:36:23;;;;;;;38.28;7.80;;;;;;;;;;5064152;28;20033;-83
2022/01/21 02:38:49;;;;;;;34.85;7.47;;;;;;;;;;5065097;28;20043;-82
2022/01/21 02:41:15;;;;;;;29.20;7.40;;;;;;;;;;5045340;28;20048;-83
2022/01/21 02:43:41;;;;;;;28.08;7.20;;;;;;;;;;5062360;28;20052;-81
2022/01/21 02:46:09;;;;;;;24.25;6.85;;;;;;;;;;5045987;28;20524;-83
2022/01/21 02:48:37;;;;;;;32.83;7.22;;;;;;;;;;5062112;28;20436;-82
2022/01/21 02:51:04;;;;;;;32.83;7.07;;;;;;;;;;5062076;28;20040;-80
2022/01/21 02:56:06;;;;;;;29.85;7.10;;;;;;;;;;5063363;28;20092;-83
2022/01/21 02:58:33;;;;;;;25.85;6.60;;;;;;;;;;5048077;28;20076;-81
2022/01/21 03:00:59;;;;;;;26.80;6.60;;;;;;;;;;5047740;28;20091;-80
2022/01/21 03:03:26;;;;;;;25.13;6.53;;;;;;;;;;5065428;28;20041;-79
2022/01/21 03:05:52;;;;;;;32.88;7.10;;;;;;;;;;5066407;28;20456;-82
2022/01/21 03:08:18;;;;;;;29.27;6.68;;;;;;;;;;5065394;28;20037;-80
2022/01/21 03:10:45;;;;;;;29.60;6.97;;;;;;;;;;5044195;28;20041;-80
2022/01/21 03:13:11;;;;;;;27.25;6.38;;;;;;;;;;5044889;28;20044;-80
2022/01/21 03:15:37;;;;;;;28.73;7.20;;;;;;;;;;5044784;28;20052;-80
2022/01/21 03:18:03;;;;;;;31.38;7.40;;;;;;;;;;5063389;28;20037;-80
2022/01/21 03:20:29;;;;;;;25.13;6.53;;;;;;;;;;5062572;28;20071;-82
2022/01/21 03:22:55;;;;;;;28.88;6.65;;;;;;;;;;5063004;28;20134;-80
2022/01/21 03:25:22;;;;;;;26.23;6.63;;;;;;;;;;5044852;28;20107;-80
2022/01/21 03:27:48;;;;;;;26.92;6.72;;;;;;;;;;5061280;28;20037;-80
2022/01/21 03:30:14;;;;;;;31.50;6.40;;;;;;;;;;5062993;28;20092;-83
2022/01/21 03:32:40;;;;;;;27.75;5.97;;;;;;;;;;5044160;28;20047;-81
2022/01/21 03:35:06;;;;;;;23.17;5.93;;;;;;;;;;5061695;28;20106;-81
2022/01/21 03:37:32;;;;;;;24.92;5.88;;;;;;;;;;5060325;28;20143;-82
2022/01/21 03:39:58;;;;;;;22.80;6.15;;;;;;;;;;5042056;28;20053;-80
2022/01/21 03:42:24;;;;;;;21.23;6.57;;;;;;;;;;5046173;28;20045;-81
2022/01/21 03:44:50;;;;;;;24.75;6.85;;;;;;;;;;5065275;28;20041;-82
2022/01/21 03:47:16;;;;;;;28.75;6.78;;;;;;;;;;5050843;28;20041;-81
2022/01/21 03:49:52;;;;;;;25.65;7.05;;;;;;;;;;5066349;28;20041;-84
2022/01/21 03:52:18;;;;;;;25.42;7.40;;;;;;;;;;5065345;28;20520;-83
2022/01/21 03:54:44;;;;;;;25.42;7.57;;;;;;;;;;5067184;28;20041;-83
2022/01/21 03:57:10;;;;;;;27.73;7.72;;;;;;;;;;5064639;28;20068;-83
2022/01/21 03:59:36;;;;;;;22.55;6.72;;;;;;;;;;5064866;28;20068;-84
2022/01/21 04:02:05;;;;;;;27.35;6.95;;;;;;;;;;5062999;28;20043;-85
2022/01/21 04:04:31;;;;;;;35.17;8.07;;;;;;;;;;5063742;28;20448;-83
2022/01/21 04:06:57;;;;;;;30.85;7.32;;;;;;;;;;5067952;28;20039;-85
2022/01/21 04:09:23;;;;;;;32.00;7.90;;;;;;;;;;5065628;28;20052;-84
2022/01/21 04:11:49;;;;;;;25.90;7.03;;;;;;;;;;5065264;28;20071;-84
2022/01/21 04:14:15;;;;;;;24.77;7.68;;;;;;;;;;5065149;28;20179;-79
2022/01/21 04:16:42;;;;;;;19.00;7.55;;;;;;;;;;5065514;28;20045;-81
2022/01/21 04:19:07;;;;;;;26.92;7.35;;;;;;;;;;5066384;28;20052;-80
2022/01/21 04:21:33;;;;;;;24.88;8.50;;;;;;;;;;5065965;28;20075;-80
2022/01/21 04:24:01;;;;;;;24.65;8.68;;;;;;;;;;5065644;28;20048;-81
2022/01/21 04:26:27;;;;;;;33.95;9.20;;;;;;;;;;5065464;28;20045;-82
2022/01/21 04:28:53;;;;;;;33.47;9.10;;;;;;;;;;5065891;28;20064;-81
2022/01/21 04:31:19;;;;;;;35.60;9.57;;;;;;;;;;5065435;28;20033;-80
2022/01/21 04:33:45;;;;;;;23.60;8.43;;;;;;;;;;5064412;28;20025;-81
2022/01/21 04:36:11;;;;;;;34.00;9.40;;;;;;;;;;5067450;28;20067;-81
2022/01/21 04:38:38;;;;;;;34.15;10.05;;;;;;;;;;5049333;28;20083;-80
2022/01/21 04:41:35;;;;;;;26.90;9.45;;;;;;;;;;5064430;28;20040;-81
2022/01/21 04:49:20;;;;;;;25.83;10.57;;;;;;;;;;5068332;28;20099;-78
2022/01/21 04:52:02;;;;;;;37.88;11.32;;;;;;;;;;5055094;28;20048;-80
2022/01/21 04:54:28;;;;;;;37.92;13.18;;;;;;;;;;5050692;28;20503;-84
2022/01/21 04:56:54;;;;;;;33.13;13.10;;;;;;;;;;5063542;28;20065;-83
2022/01/21 04:59:21;;;;;;;36.47;13.80;;;;;;;;;;5063589;28;20060;-79
2022/01/21 05:01:47;;;;;;;40.10;14.10;;;;;;;;;;5051279;28;20503;-83
2022/01/21 05:04:13;;;;;;;35.75;15.30;;;;;;;;;;5055263;28;20037;-80
2022/01/21 05:06:40;;;;;;;33.67;15.40;;;;;;;;;;5066193;28;20047;-82
2022/01/21 05:09:06;;;;;;;38.03;16.10;;;;;;;;;;5046267;28;20063;-81
2022/01/21 05:11:37;;;;;;;34.05;17.67;;;;;;;;;;5062734;28;20441;-80
2022/01/21 05:14:26;;;;;;;36.95;16.85;;;;;;;;;;5062335;28;20064;-80
2022/01/21 05:17:00;;;;;;;40.70;17.70;;;;;;;;;;5061227;28;20044;-79
2022/01/21 05:19:27;;;;;;;33.53;16.80;;;;;;;;;;5047199;28;20072;-81
2022/01/21 05:21:53;;;;;;;42.05;17.27;;;;;;;;;;5060798;28;20132;-82
2022/01/21 05:24:22;;;;;;;38.72;17.42;;;;;;;;;;5061243;28;20064;-80
2022/01/21 05:26:56;;;;;;;40.80;18.77;;;;;;;;;;5046422;28;20468;-81
2022/01/21 05:29:23;;;;;;;41.85;19.40;;;;;;;;;;5063440;28;20102;-81
2022/01/21 05:31:49;;;;;;;37.22;18.92;;;;;;;;;;5045268;28;20048;-80
2022/01/21 05:34:15;;;;;;;40.10;17.80;;;;;;;;;;5043689;28;20037;-80
2022/01/21 05:36:41;;;;;;;45.83;18.25;;;;;;;;;;5060701;28;20071;-80
2022/01/21 05:39:07;;;;;;;38.42;18.38;;;;;;;;;;5060083;28;20041;-81
2022/01/21 05:41:34;;;;;;;44.05;18.05;;;;;;;;;;5043706;28;20096;-80
2022/01/21 05:44:04;;;;;;;39.20;17.92;;;;;;;;;;5058975;28;20084;-81
2022/01/21 05:46:54;;;;;;;46.55;18.33;;;;;;;;;;5060172;28;20033;-79
2022/01/21 05:49:16;;;;;;;41.90;18.23;;;;;;;;;;5059164;28;20353;-80
2022/01/21 05:51:42;;;;;;;42.53;18.45;;;;;;;;;;5058467;28;20041;-79
2022/01/21 05:54:08;;;;;;;39.58;18.30;;;;;;;;;;5041905;28;20045;-80
2022/01/21 05:56:35;;;;;;;46.05;18.30;;;;;;;;;;5062474;28;20041;-78
2022/01/21 05:59:01;;;;;;;42.95;17.58;;;;;;;;;;5044043;28;20368;-79
2022/01/21 06:01:27;;;;;;;41.85;18.60;;;;;;;;;;5060898;28;20345;-79
2022/01/21 06:03:54;;;;;;;37.38;18.38;;;;;;;;;;5042926;28;20067;-78
2022/01/21 06:06:20;;;;;;;35.25;18.20;;;;;;;;;;5041778;28;20077;-81
2022/01/21 06:08:46;;;;;;;37.63;18.58;;;;;;;;;;5058141;28;20364;-79
2022/01/21 06:11:12;;;;;;;42.70;18.13;;;;;;;;;;5041565;28;20098;-81
2022/01/21 06:13:38;;;;;;;44.63;19.20;;;;;;;;;;5061795;28;20095;-81
2022/01/21 06:16:04;;;;;;;38.22;18.65;;;;;;;;;;5042457;28;20040;-80
2022/01/21 06:18:30;;;;;;;38.20;16.85;;;;;;;;;;5043465;28;20041;-79
2022/01/21 06:20:56;;;;;;;41.25;16.55;;;;;;;;;;5058017;28;20089;-80
2022/01/21 06:23:23;;;;;;;36.63;16.42;;;;;;;;;;5043160;28;20388;-79
2022/01/21 06:25:49;;;;;;;39.97;15.57;;;;;;;;;;5042476;28;20052;-79
2022/01/21 06:28:14;;;;;;;38.25;14.70;;;;;;;;;;5058148;28;20044;-79
2022/01/21 06:30:40;;;;;;;27.15;14.27;;;;;;;;;;5057032;28;20440;-79
2022/01/21 06:33:08;;;;;;;29.63;14.50;;;;;;;;;;5058046;28;20123;-80
2022/01/21 06:35:35;;;;;;;32.65;12.48;;;;;;;;;;5064637;28;20068;-79
2022/01/21 06:38:01;;;;;;;25.92;12.25;;;;;;;;;;5059521;28;20106;-81
2022/01/21 06:40:27;;;;;;;26.02;12.35;;;;;;;;;;5044332;28;20092;-81
2022/01/21 06:42:53;;;;;;;30.98;13.20;;;;;;;;;;5058560;28;20095;-81
2022/01/21 06:45:19;;;;;;;24.85;12.50;;;;;;;;;;5059837;28;20087;-81
2022/01/21 06:47:46;;;;;;;29.17;13.43;;;;;;;;;;5041739;28;20033;-80
2022/01/21 06:50:12;;;;;;;28.80;13.23;;;;;;;;;;5042304;28;20388;-80
2022/01/21 06:52:38;;;;;;;28.05;12.68;;;;;;;;;;5041831;28;20392;-79
2022/01/21 06:55:04;;;;;;;30.60;12.27;;;;;;;;;;5059112;28;20041;-81
2022/01/21 06:57:30;;;;;;;27.20;13.15;;;;;;;;;;5060059;28;20044;-79
2022/01/21 06:59:56;;;;;;;37.83;12.68;;;;;;;;;;5044321;28;20090;-80
2022/01/21 07:02:22;;;;;;;37.78;13.27;;;;;;;;;;5042204;28;20049;-80
2022/01/21 07:04:49;;;;;;;32.90;13.57;;;;;;;;;;5046894;28;20037;-79
2022/01/21 07:07:15;;;;;;;29.27;13.40;;;;;;;;;;5058878;28;20167;-78
2022/01/21 07:09:41;;;;;;;32.15;13.77;;;;;;;;;;5057301;28;20041;-80
2022/01/21 07:12:07;;;;;;;29.70;13.57;;;;;;;;;;5065062;28;20033;-78
2022/01/21 07:14:33;;;;;;;36.45;14.48;;;;;;;;;;5052394;28;20052;-81
2022/01/21 07:16:59;;;;;;;39.38;14.45;;;;;;;;;;5064971;28;20041;-83
2022/01/21 07:19:25;;;;;;;35.67;13.77;;;;;;;;;;5059313;28;20036;-81
2022/01/21 07:21:52;;;;;;;33.60;13.65;;;;;;;;;;5041269;28;20045;-81
2022/01/21 07:24:18;;;;;;;33.92;13.88;;;;;;;;;;5058075;28;20080;-81
2022/01/21 07:26:44;;;;;;;37.15;14.65;;;;;;;;;;5056875;28;20448;-80
2022/01/21 07:29:11;;;;;;;32.17;14.00;;;;;;;;;;5041961;28;20080;-81
2022/01/21 07:31:37;;;;;;;32.85;15.05;;;;;;;;;;5042914;28;20057;-80
2022/01/21 07:34:06;;;;;;;35.97;15.63;;;;;;;;;;5040631;28;20036;-81
2022/01/21 07:36:32;;;;;;;39.40;16.02;;;;;;;;;;5056607;28;20036;-80
2022/01/21 07:38:58;;;;;;;36.60;17.20;;;;;;;;;;5046044;28;20096;-80
2022/01/21 07:41:24;;;;;;;30.52;16.33;;;;;;;;;;5061054;28;20338;-81
2022/01/21 07:43:52;;;;;;;34.88;16.95;;;;;;;;;;5063314;28;20072;-81
2022/01/21 07:46:18;;;;;;;46.90;16.77;;;;;;;;;;5045947;28;20060;-82
2022/01/21 07:48:44;;;;;;;36.38;16.65;;;;;;;;;;5060145;28;20856;-81
2022/01/21 07:51:10;;;;;;;36.72;17.02;;;;;;;;;;5059856;28;20037;-80
2022/01/21 07:53:37;;;;;;;44.88;17.55;;;;;;;;;;5061605;28;20048;-83
2022/01/21 07:56:03;;;;;;;37.42;16.00;;;;;;;;;;5059554;28;20037;-83
2022/01/21 07:58:29;;;;;;;43.65;16.10;;;;;;;;;;5045602;28;20044;-82
2022/01/21 08:00:55;;;;;;;36.70;16.88;;;;;;;;;;5059362;28;20041;-80
2022/01/21 08:03:23;;;;;;;41.88;16.67;;;;;;;;;;5061094;28;20112;-81
2022/01/21 08:05:49;;;;;;;36.75;16.42;;;;;;;;;;5044408;28;20037;-81
2022/01/21 08:08:15;;;;;;;38.80;15.52;;;;;;;;;;5042975;28;20052;-81
2022/01/21 08:10:41;;;;;;;37.53;16.05;;;;;;;;;;5045985;28;20044;-80
2022/01/21 08:13:07;;;;;;;37.42;15.95;;;;;;;;;;5045829;28;20071;-82
2022/01/21 08:15:33;;;;;;;38.22;17.25;;;;;;;;;;5062194;28;20045;-80
2022/01/21 08:17:59;;;;;;;39.03;17.30;;;;;;;;;;5046428;28;20041;-80
2022/01/21 08:20:26;;;;;;;40.70;17.23;;;;;;;;;;5060689;28;20114;-82
2022/01/21 08:22:52;;;;;;;37.80;18.90;;;;;;;;;;5043162;28;20037;-81
2022/01/21 08:25:18;;;;;;;38.13;18.52;;;;;;;;;;5057857;28;20353;-79
2022/01/21 08:27:44;;;;;;;42.17;18.23;;;;;;;;;;5060552;28;20036;-81
2022/01/21 08:30:10;;;;;;;49.55;19.00;;;;;;;;;;5065411;28;20033;-81
2022/01/21 08:32:37;;;;;;;46.92;19.60;;;;;;;;;;5047962;28;20061;-79
2022/01/21 08:35:04;;;;;;;38.40;19.38;;;;;;;;;;5050013;28;20095;-81
2022/01/21 08:37:30;;;;;;;45.67;20.27;;;;;;;;;;5049309;28;20133;-79
2022/01/21 08:39:56;;;;;;;42.38;21.02;;;;;;;;;;5063480;28;20072;-79
2022/01/21 08:42:22;;;;;;;45.28;21.10;;;;;;;;;;5063350;28;20052;-79
2022/01/21 08:44:48;;;;;;;45.28;20.10;;;;;;;;;;5066769;28;20047;-79
2022/01/21 08:47:15;;;;;;;44.80;18.80;;;;;;;;;;5050914;28;20107;-79
2022/01/21 08:49:43;;;;;;;44.03;18.95;;;;;;;;;;5066960;28;20041;-79
2022/01/21 08:52:18;;;;;;;35.30;18.00;;;;;;;;;;5051932;28;20098;-79
2022/01/21 08:54:44;;;;;;;43.22;19.83;;;;;;;;;;5076604;28;20036;-79
2022/01/21 08:57:10;;;;;;;42.25;19.30;;;;;;;;;;5075639;28;20056;-79
2022/01/21 08:59:36;;;;;;;41.85;18.60;;;;;;;;;;5069462;28;20037;-80
2022/01/21 09:02:02;;;;;;;47.65;20.55;;;;;;;;;;5068084;28;20491;-80
2022/01/21 09:04:28;;;;;;;46.40;20.48;;;;;;;;;;5067335;28;20029;-80
2022/01/21 09:06:54;;;;;;;39.28;21.70;;;;;;;;;;5064547;28;20037;-79
2022/01/21 09:09:20;;;;;;;40.22;21.15;;;;;;;;;;5064528;28;20048;-79
2022/01/21 09:11:46;;;;;;;42.65;19.60;;;;;;;;;;5051584;28;20040;-79
2022/01/21 09:14:12;;;;;;;46.75;17.05;;;;;;;;;;5063788;28;20072;-79
2022/01/21 09:16:39;;;;;;;42.95;19.05;;;;;;;;;;5065448;28;20041;-80
2022/01/21 09:19:05;;;;;;;39.30;17.17;;;;;;;;;;5070098;28;20045;-79
2022/01/21 09:21:32;;;;;;;42.22;17.33;;;;;;;;;;5072198;28;20043;-78
2022/01/21 09:23:58;;;;;;;43.90;19.25;;;;;;;;;;5060469;28;20052;-79
2022/01/21 09:26:25;;;;;;;38.03;18.92;;;;;;;;;;5074846;28;20060;-79
2022/01/21 09:28:51;;;;;;;37.90;19.30;;;;;;;;;;5065577;28;20044;-79
2022/01/21 09:31:17;;;;;;;37.97;18.27;;;;;;;;;;5047557;28;20047;-79
2022/01/21 09:33:43;;;;;;;39.35;20.27;;;;;;;;;;5047507;28;20114;-79
2022/01/21 09:36:10;;;;;;;31.40;18.02;;;;;;;;;;5065702;28;20037;-79
2022/01/21 09:38:36;;;;;;;39.80;18.17;;;;;;;;;;5048950;28;20041;-79
2022/01/21 09:41:02;;;;;;;47.88;18.50;;;;;;;;;;5064436;28;20029;-79
2022/01/21 09:43:28;;;;;;;35.92;18.52;;;;;;;;;;5049235;28;20049;-79
2022/01/21 09:45:55;;;;;;;42.50;18.98;;;;;;;;;;5064900;28;20048;-79
2022/01/21 09:48:23;;;;;;;46.28;18.13;;;;;;;;;;5065362;28;20116;-79
2022/01/21 09:50:50;;;;;;;45.38;19.02;;;;;;;;;;5067879;28;20235;-80
2022/01/21 09:53:17;;;;;;;39.13;18.13;;;;;;;;;;5052521;28;20099;-80
2022/01/21 09:55:44;;;;;;;43.65;19.17;;;;;;;;;;5052700;28;20119;-80
2022/01/21 09:58:10;;;;;;;36.83;18.90;;;;;;;;;;5067625;28;20041;-80
2022/01/21 10:00:36;;;;;;;37.22;19.00;;;;;;;;;;5064043;28;20075;-80
2022/01/21 10:03:03;;;;;;;46.53;19.00;;;;;;;;;;5041451;28;20040;-80
2022/01/21 10:05:29;;;;;;;42.50;19.00;;;;;;;;;;5058246;28;20040;-80
2022/01/21 10:07:55;;;;;;;39.17;16.02;;;;;;;;;;5057707;28;20032;-79
2022/01/21 10:10:21;;;;;;;40.22;17.48;;;;;;;;;;5056896;28;20041;-78
2022/01/21 10:12:49;;;;;;;36.63;17.50;;;;;;;;;;5044618;28;20036;-78
2022/01/21 10:15:15;;;;;;;50.40;18.40;;;;;;;;;;5056611;28;20071;-78
2022/01/21 10:17:57;;;;;;;38.67;17.70;;;;;;;;;;5071217;28;20041;-80
2022/01/21 10:20:23;;;;;;;44.22;18.17;;;;;;;;;;5060113;28;20044;-79
2022/01/21 10:22:56;;;;;;;30.05;14.32;;;;;;;;;;5058507;28;20041;-80
2022/01/21 10:25:22;;;;;;;36.35;16.40;;;;;;;;;;5048131;28;20071;-80
2022/01/21 10:27:48;;;;;;;32.17;17.00;;;;;;;;;;5046559;28;20037;-80
2022/01/21 10:30:24;;;;;;;33.70;16.95;;;;;;;;;;5060614;28;20033;-80
2022/01/21 10:32:50;;;;;;;38.72;17.85;;;;;;;;;;5043369;28;20041;-81
2022/01/21 10:35:26;;;;;;;33.75;16.35;;;;;;;;;;5062428;28;20052;-81
2022/01/21 10:37:56;;;;;;;37.42;15.80;;;;;;;;;;5049019;28;20049;-80
2022/01/21 10:40:22;;;;;;;32.70;16.40;;;;;;;;;;5061197;28;20037;-80
2022/01/21 10:42:48;;;;;;;33.40;15.20;;;;;;;;;;5044995;28;20076;-81
2022/01/21 10:45:14;;;;;;;38.33;16.23;;;;;;;;;;5045255;28;20130;-81
2022/01/21 10:47:47;;;;;;;37.83;14.80;;;;;;;;;;5043569;28;20033;-80
2022/01/21 10:50:13;;;;;;;;;;;;;;;;;;5060515;28;20037;-80
2022/01/21 10:52:40;;;;;;;36.63;16.73;;;;;;;;;;5062157;28;19936;-79
2022/01/21 10:55:25;;;;;;;40.47;17.40;;;;;;;;;;5042841;28;20056;-80
2022/01/21 10:58:03;;;;;;;39.42;16.38;;;;;;;;;;5060510;28;20425;-81
2022/01/21 11:00:29;;;;;;;36.38;16.38;;;;;;;;;;5043329;28;20037;-81
2022/01/21 11:02:55;;;;;;;35.83;15.43;;;;;;;;;;5060401;28;20460;-80
2022/01/21 11:05:23;;;;;;;37.33;15.63;;;;;;;;;;5043635;28;20040;-80
2022/01/21 11:07:55;;;;;;;35.00;15.27;;;;;;;;;;5060492;28;20114;-79
2022/01/21 11:10:37;;;;;;;34.75;14.85;;;;;;;;;;5058446;28;20350;-80
2022/01/21 11:13:04;;;;;;;34.53;14.63;;;;;;;;;;5060892;28;20036;-80
2022/01/21 11:15:39;;;;;;;34.20;14.95;;;;;;;;;;5061921;28;20071;-82
2022/01/21 11:18:07;;;;;;;33.97;14.50;;;;;;;;;;5044840;28;20051;-82
2022/01/21 11:20:36;;;;;;;35.42;14.55;;;;;;;;;;5060871;28;20071;-81
2022/01/21 11:23:02;;;;;;;28.20;14.35;;;;;;;;;;5044820;28;20044;-81
2022/01/21 11:25:43;;;;;;;28.42;12.30;;;;;;;;;;5061500;28;20055;-81
2022/01/21 11:28:10;;;;;;;31.80;13.25;;;;;;;;;;5063166;28;20107;-80
2022/01/21 11:30:36;;;;;;;33.30;12.75;;;;;;;;;;5048692;28;20067;-79
2022/01/21 11:33:02;;;;;;;26.17;11.88;;;;;;;;;;5061616;28;20041;-80
2022/01/21 11:35:28;;;;;;;24.65;10.80;;;;;;;;;;5043422;28;20041;-81
2022/01/21 11:37:54;;;;;;;29.30;11.43;;;;;;;;;;5058575;28;20067;-81
2022/01/21 11:40:20;;;;;;;25.75;10.38;;;;;;;;;;5049271;28;20547;-79
2022/01/21 11:42:46;;;;;;;29.08;10.05;;;;;;;;;;5069478;28;20049;-84
2022/01/21 11:45:30;;;;;;;25.95;9.32;;;;;;;;;;5060546;28;20052;-81
2022/01/21 11:50:41;;;;;;;25.98;8.70;;;;;;;;;;5058768;28;20044;-81
2022/01/21 11:53:07;;;;;;;20.80;8.85;;;;;;;;;;5042296;28;20103;-79
2022/01/21 11:55:39;;;;;;;21.05;9.18;;;;;;;;;;5058970;28;20130;-81
2022/01/21 11:58:12;;;;;;;24.98;8.77;;;;;;;;;;5042164;28;20040;-81
2022/01/21 12:00:39;;;;;;;18.90;8.77;;;;;;;;;;5058165;28;20037;-79
2022/01/21 12:03:05;;;;;;;18.70;8.35;;;;;;;;;;5043875;28;20360;-80
2022/01/21 12:05:33;;;;;;;20.73;8.15;;;;;;;;;;5046279;28;20041;-79
2022/01/21 12:08:03;;;;;;;23.45;8.25;;;;;;;;;;5044754;28;20495;-79
2022/01/21 12:10:31;;;;;;;25.67;8.70;;;;;;;;;;5062105;28;20044;-79
2022/01/21 12:15:31;;;;;;;22.45;8.05;;;;;;;;;;5062097;28;20045;-81
2022/01/21 12:17:59;;;;;;;;;;;;;;;;;;5045452;28;20036;-81
2022/01/21 12:20:32;;;;;;;22.10;8.60;;;;;;;;;;5063034;28;19920;-80
2022/01/21 12:23:15;;;;;;;28.63;8.95;;;;;;;;;;5045929;28;20033;-81
2022/01/21 12:26:00;;;;;;;32.30;9.73;;;;;;;;;;5050567;28;20488;-80
2022/01/21 12:28:26;;;;;;;21.98;9.10;;;;;;;;;;5079378;28;20037;-78
2022/01/21 12:30:52;;;;;;;27.73;11.57;;;;;;;;;;5063133;28;20080;-81
2022/01/21 12:33:18;;;;;;;29.58;11.95;;;;;;;;;;5045265;28;20047;-79
2022/01/21 12:35:45;;;;;;;29.48;11.68;;;;;;;;;;5044310;28;20461;-78
2022/01/21 12:40:54;;;;;;;34.42;13.10;;;;;;;;;;5063478;28;20094;-80
2022/01/21 12:43:39;;;;;;;32.38;13.63;;;;;;;;;;5046033;28;20052;-79
2022/01/21 12:46:06;;;;;;;33.38;13.85;;;;;;;;;;5059806;28;20472;-77
2022/01/21 12:48:35;;;;;;;32.92;13.43;;;;;;;;;;5057626;28;20033;-77
2022/01/21 12:51:16;;;;;;;35.90;14.10;;;;;;;;;;5038892;28;20060;-77
2022/01/21 12:55:55;;;;;;;37.58;13.07;;;;;;;;;;5040253;28;20417;-78
2022/01/21 12:56:28;;;;;;;36.10;14.23;;;;;;;;;;5053395;28;20029;-77
2022/01/21 12:58:55;;;;;;;38.05;13.48;;;;;;;;;;5038663;28;20381;-76
2022/01/21 13:01:21;;;;;;;31.83;12.45;;;;;;;;;;5059565;28;20354;-77
2022/01/21 13:03:50;;;;;;;27.70;12.68;;;;;;;;;;5058705;28;20441;-79
2022/01/21 13:06:17;;;;;;;33.30;12.13;;;;;;;;;;5060734;28;20037;-80
2022/01/21 13:09:08;;;;;;;26.27;10.85;;;;;;;;;;5059983;28;20025;-79
2022/01/21 13:11:35;;;;;;;33.67;11.77;;;;;;;;;;5043311;28;20044;-79
2022/01/21 13:16:54;;;;;;;26.67;10.70;;;;;;;;;;5078455;28;20036;-78
2022/01/21 13:19:20;;;;;;;28.35;10.93;;;;;;;;;;5074675;28;20041;-77
2022/01/21 13:21:46;;;;;;;30.13;11.48;;;;;;;;;;5044690;28;20040;-78
2022/01/21 13:24:26;;;;;;;28.98;11.60;;;;;;;;;;5043779;28;20044;-77
2022/01/21 13:26:53;;;;;;;25.38;11.25;;;;;;;;;;5048806;28;20065;-77
2022/01/21 13:29:19;;;;;;;27.58;12.23;;;;;;;;;;5052775;28;20037;-78
2022/01/21 13:31:48;;;;;;;28.00;12.02;;;;;;;;;;5065050;28;20073;-79
2022/01/21 13:34:15;;;;;;;24.83;11.10;;;;;;;;;;5061560;28;20041;-78
2022/01/21 13:36:48;;;;;;;33.83;12.32;;;;;;;;;;5044058;28;20037;-78
2022/01/21 13:39:34;;;;;;;28.35;12.13;;;;;;;;;;5047030;28;20041;-78
2022/01/21 13:42:10;;;;;;;28.88;13.77;;;;;;;;;;5063053;28;20040;-79
2022/01/21 13:44:36;;;;;;;30.15;13.73;;;;;;;;;;5045539;28;20057;-79
2022/01/21 13:47:03;;;;;;;37.65;13.32;;;;;;;;;;5062095;28;20037;-79
2022/01/21 13:49:29;;;;;;;36.35;14.77;;;;;;;;;;5044003;28;20052;-79
2022/01/21 13:51:56;;;;;;;34.63;13.20;;;;;;;;;;5060486;28;20056;-78
2022/01/21 13:54:32;;;;;;;30.85;13.55;;;;;;;;;;5042573;28;20395;-79
2022/01/21 13:56:58;;;;;;;31.27;12.73;;;;;;;;;;5043309;28;20033;-80
2022/01/21 13:59:24;;;;;;;31.00;12.90;;;;;;;;;;5044973;28;20043;-77
2022/01/21 14:01:50;;;;;;;33.83;13.35;;;;;;;;;;5058549;28;20044;-77
2022/01/21 14:04:16;;;;;;;33.13;12.95;;;;;;;;;;5064804;28;20045;-78
2022/01/21 14:06:42;;;;;;;34.47;12.70;;;;;;;;;;5045208;28;20135;-78
2022/01/21 14:09:08;;;;;;;30.02;12.80;;;;;;;;;;5054999;28;20048;-78
2022/01/21 14:11:47;;;;;;;29.20;12.60;;;;;;;;;;5060340;28;20037;-79
2022/01/21 14:14:13;;;;;;;29.63;11.73;;;;;;;;;;5058739;28;20404;-78
2022/01/21 14:16:53;;;;;;;35.00;14.68;;;;;;;;;;5057913;28;20437;-79
2022/01/21 14:19:19;;;;;;;34.95;12.43;;;;;;;;;;5044794;28;20472;-78
2022/01/21 14:21:47;;;;;;;26.05;11.55;;;;;;;;;;5041927;28;20052;-78
2022/01/21 14:24:23;;;;;;;38.60;13.02;;;;;;;;;;5043334;28;20049;-78
2022/01/21 14:26:53;;;;;;;34.47;14.10;;;;;;;;;;5056579;28;20064;-79
2022/01/21 14:29:32;;;;;;;35.67;14.13;;;;;;;;;;5060606;28;20033;-80
2022/01/21 14:32:01;;;;;;;33.20;13.90;;;;;;;;;;5044048;28;20041;-78
2022/01/21 14:34:27;;;;;;;34.75;14.27;;;;;;;;;;5060756;28;20380;-79
2022/01/21 14:36:59;;;;;;;35.45;14.68;;;;;;;;;;5060339;28;20041;-79
2022/01/21 14:39:25;;;;;;;35.67;14.43;;;;;;;;;;5061270;28;20045;-80
2022/01/21 14:41:52;;;;;;;33.33;15.50;;;;;;;;;;5060877;28;20047;-79
2022/01/21 14:44:31;;;;;;;44.05;16.27;;;;;;;;;;5064490;28;20076;-79
2022/01/21 14:47:04;;;;;;;36.70;16.17;;;;;;;;;;5046733;28;20033;-78
2022/01/21 14:49:30;;;;;;;;;;;;;;;;;;5045304;28;20029;-79
2022/01/21 14:54:41;;;;;;;36.90;18.40;;;;;;;;;;5070062;28;20032;-81
2022/01/21 14:57:07;;;;;;;41.92;19.20;;;;;;;;;;5061410;28;20041;-80
2022/01/21 14:59:33;;;;;;;41.50;20.38;;;;;;;;;;5062250;28;20052;-80
2022/01/21 15:02:04;;;;;;;37.13;20.13;;;;;;;;;;5060988;28;20043;-81
2022/01/21 15:04:35;;;;;;;41.53;21.88;;;;;;;;;;5043586;28;20029;-79
2022/01/21 15:07:25;;;;;;;45.20;22.35;;;;;;;;;;5044552;28;20147;-82
2022/01/21 15:09:52;;;;;;;43.45;23.13;;;;;;;;;;5061974;28;20048;-80
2022/01/21 15:15:29;;;;;;;49.60;24.38;;;;;;;;;;5060492;28;20041;-82
2022/01/21 15:17:55;;;;;;;47.78;26.02;;;;;;;;;;5060557;28;20449;-80
2022/01/21 15:20:24;;;;;;;62.17;28.60;;;;;;;;;;5041695;28;20052;-80
2022/01/21 15:22:50;;;;;;;58.25;30.38;;;;;;;;;;5042721;28;20052;-78
2022/01/21 15:25:16;;;;;;;56.40;31.40;;;;;;;;;;5061754;28;20055;-79
2022/01/21 15:27:43;;;;;;;56.45;32.50;;;;;;;;;;5069286;28;20120;-78